createdAt,value
2022-07-30T00:00:25.571Z,25.02
2022-07-30T00:03:07.269Z,24.98
2022-07-30T00:05:38.012Z,24.93
2022-07-30T00:08:08.669Z,24.90
2022-07-30T00:10:39.328Z,24.84
2022-07-30T00:13:10.057Z,24.80
2022-07-30T00:15:45.060Z,24.79
2022-07-30T00:18:15.702Z,24.76
2022-07-30T00:20:46.402Z,24.72
2022-07-30T00:23:19.196Z,24.66
2022-07-30T00:25:50.131Z,24.66
2022-07-30T00:28:20.839Z,24.67
2022-07-30T00:30:52.740Z,24.65
2022-07-30T00:33:26.937Z,24.66
2022-07-30T00:35:57.713Z,24.68
2022-07-30T00:38:28.403Z,24.65
2022-07-30T00:40:59.559Z,24.59
2022-07-30T00:43:30.308Z,24.58
2022-07-30T00:46:01.064Z,24.60
2022-07-30T00:48:31.678Z,24.60
2022-07-30T00:51:02.374Z,24.59
2022-07-30T00:53:34.059Z,24.51
2022-07-30T00:56:05.085Z,24.48
2022-07-30T00:58:35.692Z,24.49
2022-07-30T01:01:06.406Z,24.47
2022-07-30T01:03:37.144Z,24.46
2022-07-30T01:06:14.419Z,24.44
2022-07-30T01:08:45.362Z,24.41
2022-07-30T01:11:16.285Z,24.36
2022-07-30T01:13:46.934Z,24.34
2022-07-30T01:16:17.627Z,24.32
2022-07-30T01:19:05.728Z,24.29
2022-07-30T01:21:40.766Z,24.28
2022-07-30T01:24:22.683Z,24.34
2022-07-30T01:26:53.453Z,24.42
2022-07-30T01:29:24.260Z,24.47
2022-07-30T01:31:56.488Z,24.47
2022-07-30T01:34:27.184Z,24.46
2022-07-30T01:36:58.328Z,24.44
2022-07-30T01:39:30.386Z,24.43
2022-07-30T01:42:05.439Z,24.42
2022-07-30T01:44:36.224Z,24.42
2022-07-30T01:47:07.127Z,24.42
2022-07-30T01:49:37.708Z,24.37
2022-07-30T01:52:08.530Z,24.40
2022-07-30T01:54:39.318Z,24.46
2022-07-30T01:57:10.038Z,24.45
2022-07-30T01:59:40.843Z,24.41
2022-07-30T02:02:11.605Z,24.40
2022-07-30T02:04:42.182Z,24.38
2022-07-30T02:07:14.523Z,24.35
2022-07-30T02:09:47.412Z,24.33
2022-07-30T02:12:30.476Z,24.30
2022-07-30T02:15:04.890Z,24.27
2022-07-30T02:17:39.896Z,24.23
2022-07-30T02:20:14.148Z,24.20
2022-07-30T02:22:46.249Z,24.14
2022-07-30T02:25:19.463Z,24.08
2022-07-30T02:27:52.307Z,24.03
2022-07-30T02:30:23.030Z,24.02
2022-07-30T02:32:53.674Z,24.05
2022-07-30T02:35:24.368Z,24.02
2022-07-30T02:37:55.019Z,23.98
2022-07-30T02:40:25.618Z,23.95
2022-07-30T02:42:56.237Z,23.94
2022-07-30T02:45:26.933Z,23.93
2022-07-30T02:47:58.428Z,23.92
2022-07-30T02:50:29.260Z,23.91
2022-07-30T02:53:00.936Z,23.88
2022-07-30T02:55:31.763Z,23.87
2022-07-30T02:58:02.602Z,23.86
2022-07-30T03:00:33.469Z,23.89
2022-07-30T03:03:04.443Z,23.87
2022-07-30T03:05:35.082Z,23.88
2022-07-30T03:08:06.056Z,23.90
2022-07-30T03:10:36.864Z,23.93
2022-07-30T03:13:07.695Z,23.94
2022-07-30T03:15:39.274Z,23.91
2022-07-30T03:18:10.888Z,23.84
2022-07-30T03:20:41.514Z,23.79
2022-07-30T03:23:12.142Z,23.77
2022-07-30T03:25:42.835Z,23.76
2022-07-30T03:28:14.033Z,23.73
2022-07-30T03:30:45.269Z,23.71
2022-07-30T03:33:15.999Z,23.72
2022-07-30T03:35:47.342Z,23.74
2022-07-30T03:38:17.996Z,23.73
2022-07-30T03:40:48.760Z,23.74
2022-07-30T03:43:33.209Z,23.77
2022-07-30T03:46:05.335Z,23.79
2022-07-30T03:48:36.158Z,23.81
2022-07-30T03:51:07.870Z,23.87
2022-07-30T03:53:38.804Z,23.92
2022-07-30T03:56:09.435Z,23.98
2022-07-30T03:58:41.080Z,24.03
2022-07-30T04:01:11.996Z,24.08
2022-07-30T04:03:42.757Z,24.14
2022-07-30T04:06:13.504Z,24.16
2022-07-30T04:08:44.261Z,24.15
2022-07-30T04:11:14.833Z,24.13
2022-07-30T04:13:45.604Z,24.10
2022-07-30T04:16:39.424Z,24.11
2022-07-30T04:19:09.816Z,24.15
2022-07-30T04:21:40.571Z,24.15
2022-07-30T04:24:12.018Z,24.13
2022-07-30T04:26:42.721Z,24.16
2022-07-30T04:29:16.667Z,24.15
2022-07-30T04:31:50.129Z,24.12
2022-07-30T04:34:20.844Z,24.04
2022-07-30T04:36:51.387Z,23.99
2022-07-30T04:39:22.037Z,23.98
2022-07-30T04:41:52.790Z,23.99
2022-07-30T04:44:23.392Z,24.02
2022-07-30T04:46:54.307Z,24.06
2022-07-30T04:49:25.266Z,24.09
2022-07-30T04:51:55.995Z,24.15
2022-07-30T04:54:26.907Z,24.20
2022-07-30T04:56:57.749Z,24.29
2022-07-30T04:59:28.636Z,24.34
2022-07-30T05:01:59.675Z,24.37
2022-07-30T05:04:30.764Z,24.34
2022-07-30T05:07:01.763Z,24.32
2022-07-30T05:09:34.240Z,24.37
2022-07-30T05:12:05.036Z,24.45
2022-07-30T05:14:35.818Z,24.52
2022-07-30T05:17:06.581Z,24.58
2022-07-30T05:19:37.296Z,24.62
2022-07-30T05:22:07.953Z,24.66
2022-07-30T05:24:38.577Z,24.70
2022-07-30T05:27:09.271Z,24.73
2022-07-30T05:29:40.024Z,24.79
2022-07-30T05:32:12.363Z,24.85
2022-07-30T05:34:43.130Z,24.89
2022-07-30T05:37:20.723Z,24.96
2022-07-30T05:40:02.373Z,25.05
2022-07-30T05:42:33.799Z,25.17
2022-07-30T05:45:04.538Z,25.27
2022-07-30T05:47:35.213Z,25.35
2022-07-30T05:50:06.498Z,25.42
2022-07-30T05:52:37.234Z,25.44
2022-07-30T05:55:09.378Z,25.47
2022-07-30T05:57:42.238Z,25.53
2022-07-30T06:00:13.905Z,25.62
2022-07-30T06:02:44.631Z,25.70
2022-07-30T06:05:15.281Z,25.78
2022-07-30T06:07:45.905Z,25.89
2022-07-30T06:10:16.707Z,25.97
2022-07-30T06:12:47.389Z,26.04
2022-07-30T06:15:25.688Z,26.13
2022-07-30T06:18:02.321Z,26.22
2022-07-30T06:20:33.470Z,26.28
2022-07-30T06:23:04.083Z,26.37
2022-07-30T06:25:34.839Z,26.48
2022-07-30T06:28:27.457Z,26.57
2022-07-30T06:30:57.410Z,26.65
2022-07-30T06:33:28.093Z,26.73
2022-07-30T06:35:58.768Z,26.81
2022-07-30T06:38:29.439Z,26.92
2022-07-30T06:41:02.583Z,27.05
2022-07-30T06:43:35.297Z,27.18
2022-07-30T06:46:05.968Z,27.28
2022-07-30T06:48:37.583Z,27.39
2022-07-30T06:51:08.245Z,27.50
2022-07-30T06:53:42.849Z,27.63
2022-07-30T06:56:13.773Z,27.75
2022-07-30T06:58:44.388Z,27.92
2022-07-30T07:01:15.158Z,28.14
2022-07-30T07:03:45.936Z,28.33
2022-07-30T07:06:16.549Z,28.43
2022-07-30T07:08:47.174Z,28.51
2022-07-30T07:11:17.881Z,28.67
2022-07-30T07:13:48.562Z,28.89
2022-07-30T07:16:21.960Z,29.08
2022-07-30T07:18:53.385Z,29.27
2022-07-30T07:21:24.639Z,29.43
2022-07-30T07:23:55.247Z,29.54
2022-07-30T07:26:25.929Z,29.66
2022-07-30T07:28:56.722Z,29.79
2022-07-30T07:32:05.399Z,29.94
2022-07-30T07:34:18.445Z,30.09
2022-07-30T07:36:49.217Z,30.23
2022-07-30T07:39:19.879Z,30.42
2022-07-30T07:41:50.571Z,30.62
2022-07-30T07:44:21.243Z,30.79
2022-07-30T07:46:52.132Z,30.89
2022-07-30T07:49:22.825Z,30.99
2022-07-30T07:51:53.542Z,31.00
2022-07-30T07:54:24.205Z,31.12
2022-07-30T07:56:56.682Z,31.30
2022-07-30T07:59:32.886Z,31.53
2022-07-30T08:02:10.282Z,31.72
2022-07-30T08:04:41.055Z,31.84
2022-07-30T08:07:11.743Z,32.02
2022-07-30T08:09:44.591Z,32.14
2022-07-30T08:12:15.599Z,32.28
2022-07-30T08:14:46.197Z,32.44
2022-07-30T08:17:16.916Z,32.62
2022-07-30T08:19:47.702Z,32.74
2022-07-30T08:22:18.380Z,32.89
2022-07-30T08:24:49.092Z,33.02
2022-07-30T08:27:20.055Z,33.10
2022-07-30T08:29:50.746Z,33.21
2022-07-30T08:32:21.488Z,33.38
2022-07-30T08:34:52.126Z,33.49
2022-07-30T08:37:23.489Z,33.58
2022-07-30T08:39:54.201Z,33.75
2022-07-30T08:42:25.131Z,33.95
2022-07-30T08:44:56.065Z,34.10
2022-07-30T08:47:29.192Z,34.21
2022-07-30T08:50:04.731Z,34.31
2022-07-30T08:52:37.280Z,34.34
2022-07-30T08:55:08.924Z,34.43
2022-07-30T08:57:39.581Z,34.78
2022-07-30T09:00:11.251Z,35.10
2022-07-30T09:02:41.957Z,35.12
2022-07-30T09:05:13.024Z,35.10
2022-07-30T09:07:43.763Z,35.19
2022-07-30T09:10:14.380Z,35.45
2022-07-30T09:12:45.537Z,35.64
2022-07-30T09:15:16.689Z,35.78
2022-07-30T09:17:51.529Z,35.92
2022-07-30T09:20:22.724Z,36.14
2022-07-30T09:22:53.932Z,36.31
2022-07-30T09:25:36.099Z,36.45
2022-07-30T09:28:15.859Z,36.68
2022-07-30T09:30:48.471Z,36.86
2022-07-30T09:47:09.836Z,38.29
2022-07-30T09:49:42.117Z,38.21
2022-07-30T09:52:27.125Z,38.34
2022-07-30T09:55:00.040Z,38.67
2022-07-30T09:57:30.847Z,38.89
2022-07-30T10:00:18.605Z,38.90
2022-07-30T10:02:50.661Z,38.80
2022-07-30T10:05:21.806Z,38.75
2022-07-30T10:07:55.642Z,38.89
2022-07-30T10:10:26.744Z,39.03
2022-07-30T10:12:59.130Z,39.20
2022-07-30T10:15:32.467Z,39.23
2022-07-30T10:18:06.334Z,39.20
2022-07-30T10:20:39.539Z,39.35
2022-07-30T10:23:15.798Z,39.63
2022-07-30T10:25:49.709Z,39.88
2022-07-30T10:28:26.800Z,39.81
2022-07-30T10:30:57.833Z,39.87
2022-07-30T10:33:35.046Z,39.89
2022-07-30T10:36:08.839Z,39.73
2022-07-30T10:38:41.274Z,39.87
2022-07-30T10:41:15.627Z,39.99
2022-07-30T10:44:06.125Z,39.97
2022-07-30T10:46:47.511Z,39.96
2022-07-30T10:49:19.058Z,40.19
2022-07-30T10:51:50.678Z,40.37
2022-07-30T10:54:45.239Z,40.35
2022-07-30T10:57:22.669Z,40.73
2022-07-30T11:00:15.327Z,40.86
2022-07-30T11:03:14.798Z,40.77
2022-07-30T11:05:46.630Z,40.61
2022-07-30T11:08:36.897Z,40.62
2022-07-30T11:12:15.888Z,40.53
2022-07-30T11:14:21.321Z,40.68
2022-07-30T11:17:01.474Z,40.91
2022-07-30T11:19:55.601Z,41.22
2022-07-30T11:22:26.981Z,41.25
2022-07-30T11:24:57.616Z,41.05
2022-07-30T11:27:37.877Z,41.13
2022-07-30T11:30:29.374Z,41.15
2022-07-30T11:33:20.456Z,41.07
2022-07-30T11:36:05.564Z,41.09
2022-07-30T11:38:49.596Z,40.99
2022-07-30T11:41:20.436Z,40.99
2022-07-30T11:43:51.222Z,41.01
2022-07-30T11:46:29.940Z,40.97
2022-07-30T11:49:02.936Z,41.05
2022-07-30T11:51:41.503Z,41.28
2022-07-30T11:54:12.707Z,41.47
2022-07-30T11:56:50.870Z,41.61
2022-07-30T11:59:21.650Z,41.69
2022-07-30T12:01:52.672Z,41.55
2022-07-30T12:04:24.572Z,41.57
2022-07-30T12:06:55.237Z,41.53
2022-07-30T12:09:29.237Z,41.72
2022-07-30T12:12:01.033Z,41.84
2022-07-30T12:14:39.961Z,41.80
2022-07-30T12:17:15.544Z,41.70
2022-07-30T12:19:48.352Z,41.65
2022-07-30T12:22:20.042Z,41.58
2022-07-30T12:24:50.711Z,41.64
2022-07-30T12:27:21.902Z,41.56
2022-07-30T12:29:52.813Z,41.49
2022-07-30T12:32:23.554Z,41.50
2022-07-30T12:34:57.412Z,41.58
2022-07-30T12:37:28.105Z,41.46
2022-07-30T12:40:14.339Z,41.18
2022-07-30T12:42:52.843Z,41.20
2022-07-30T12:45:52.163Z,41.39
2022-07-30T12:48:24.152Z,41.60
2022-07-30T12:51:08.952Z,41.73
2022-07-30T12:53:39.834Z,41.74
2022-07-30T12:56:14.340Z,41.59
2022-07-30T12:58:45.791Z,41.76
2022-07-30T13:01:17.059Z,41.79
2022-07-30T13:03:47.888Z,41.78
2022-07-30T13:06:19.340Z,41.90
2022-07-30T13:08:53.353Z,41.95
2022-07-30T13:11:25.968Z,41.99
2022-07-30T13:13:56.848Z,41.87
2022-07-30T13:16:27.813Z,41.89
2022-07-30T13:18:58.574Z,41.87
2022-07-30T13:21:29.426Z,41.48
2022-07-30T13:24:00.740Z,41.32
2022-07-30T13:26:31.593Z,41.40
2022-07-30T13:29:02.308Z,41.53
2022-07-30T13:31:42.405Z,41.60
2022-07-30T13:34:14.128Z,41.57
2022-07-30T13:36:44.947Z,41.63
2022-07-30T13:39:15.676Z,41.71
2022-07-30T13:41:47.049Z,41.71
2022-07-30T13:44:17.753Z,41.86
2022-07-30T13:46:48.593Z,41.85
2022-07-30T13:49:19.301Z,41.82
2022-07-30T13:51:50.132Z,41.72
2022-07-30T13:54:20.817Z,41.55
2022-07-30T13:56:51.398Z,41.37
2022-07-30T13:59:22.101Z,41.49
2022-07-30T14:01:53.354Z,41.64
2022-07-30T14:04:24.551Z,41.73
2022-07-30T14:06:55.229Z,41.86
2022-07-30T14:09:25.808Z,42.02
2022-07-30T14:11:56.657Z,42.10
2022-07-30T14:14:28.505Z,42.05
2022-07-30T14:16:59.974Z,41.95
2022-07-30T14:19:31.349Z,42.00
2022-07-30T14:22:02.053Z,41.88
2022-07-30T14:24:32.683Z,41.71
2022-07-30T14:27:05.645Z,41.72
2022-07-30T14:29:36.620Z,41.83
2022-07-30T14:32:08.106Z,42.13
2022-07-30T14:34:38.751Z,42.28
2022-07-30T14:37:14.640Z,42.04
2022-07-30T14:39:45.575Z,41.87
2022-07-30T14:42:16.296Z,41.90
2022-07-30T14:44:47.128Z,41.94
2022-07-30T14:47:18.142Z,41.89
2022-07-30T14:49:49.168Z,41.83
2022-07-30T14:52:21.132Z,41.83
2022-07-30T14:54:52.323Z,41.71
2022-07-30T14:57:23.032Z,41.47
2022-07-30T14:59:53.770Z,41.26
2022-07-30T15:02:24.774Z,41.16
2022-07-30T15:04:55.775Z,41.09
2022-07-30T15:07:26.455Z,41.12
2022-07-30T15:09:57.613Z,41.05
2022-07-30T15:12:28.391Z,40.93
2022-07-30T15:14:59.687Z,40.74
2022-07-30T15:17:31.895Z,40.46
2022-07-30T15:20:02.672Z,40.22
2022-07-30T15:22:33.339Z,39.98
2022-07-30T15:25:03.908Z,39.83
2022-07-30T15:27:34.751Z,39.71
2022-07-30T15:30:05.993Z,39.47
2022-07-30T15:32:37.317Z,39.17
2022-07-30T15:35:13.183Z,38.90
2022-07-30T15:37:44.396Z,38.75
2022-07-30T15:40:15.135Z,38.69
2022-07-30T15:42:46.144Z,38.58
2022-07-30T15:45:18.231Z,38.38
2022-07-30T15:47:49.453Z,38.13
2022-07-30T15:50:20.110Z,37.98
2022-07-30T15:52:50.782Z,38.00
2022-07-30T15:55:21.458Z,37.99
2022-07-30T15:57:52.440Z,37.90
2022-07-30T16:00:23.497Z,37.78
2022-07-30T16:02:56.299Z,37.69
2022-07-30T16:05:27.054Z,37.55
2022-07-30T16:08:17.767Z,37.39
2022-07-30T16:10:48.388Z,37.27
2022-07-30T16:13:19.055Z,37.19
2022-07-30T16:15:49.743Z,37.10
2022-07-30T16:18:20.796Z,36.98
2022-07-30T16:20:51.459Z,36.89
2022-07-30T16:23:22.085Z,36.80
2022-07-30T16:25:52.841Z,36.70
2022-07-30T16:28:23.447Z,36.60
2022-07-30T16:30:54.160Z,36.44
2022-07-30T16:33:25.080Z,36.33
2022-07-30T16:35:55.736Z,36.21
2022-07-30T16:38:26.409Z,36.06
2022-07-30T16:40:57.119Z,35.89
2022-07-30T16:43:27.761Z,35.73
2022-07-30T16:45:58.512Z,35.51
2022-07-30T16:48:29.228Z,35.23
2022-07-30T16:51:00.228Z,34.91
2022-07-30T16:53:30.896Z,34.71
2022-07-30T16:56:01.640Z,34.55
2022-07-30T16:58:32.491Z,34.39
2022-07-30T17:01:03.595Z,34.28
2022-07-30T17:03:34.428Z,34.17
2022-07-30T17:06:05.420Z,34.06
2022-07-30T17:08:36.434Z,33.87
2022-07-30T17:11:09.066Z,33.71
2022-07-30T17:13:41.914Z,33.59
2022-07-30T17:16:14.359Z,33.47
2022-07-30T17:18:45.149Z,33.39
2022-07-30T17:21:15.886Z,33.29
2022-07-30T17:23:46.888Z,33.20
2022-07-30T17:26:17.610Z,33.16
2022-07-30T17:28:48.401Z,33.09
2022-07-30T17:31:19.181Z,33.03
2022-07-30T17:33:49.974Z,32.96
2022-07-30T17:36:21.317Z,32.91
2022-07-30T17:38:52.073Z,32.91
2022-07-30T17:41:22.733Z,32.88
2022-07-30T17:43:53.575Z,32.81
2022-07-30T17:46:24.284Z,32.72
2022-07-30T17:48:55.128Z,32.62
2022-07-30T17:51:25.819Z,32.57
2022-07-30T17:53:56.537Z,32.54
2022-07-30T17:56:27.533Z,32.51
2022-07-30T17:58:58.216Z,32.50
2022-07-30T18:01:28.909Z,32.48
2022-07-30T18:03:59.904Z,32.45
2022-07-30T18:06:30.724Z,32.38
2022-07-30T18:09:01.384Z,32.33
2022-07-30T18:11:32.026Z,32.30
2022-07-30T18:14:02.652Z,32.25
2022-07-30T18:16:33.333Z,32.20
2022-07-30T18:19:04.437Z,32.18
2022-07-30T18:21:35.987Z,32.14
2022-07-30T18:24:09.446Z,32.13
2022-07-30T18:26:44.186Z,32.15
2022-07-30T18:29:15.461Z,32.15
2022-07-30T18:31:46.213Z,32.11
2022-07-30T18:34:17.028Z,32.04
2022-07-30T18:36:51.316Z,32.00
2022-07-30T18:39:22.085Z,31.99
2022-07-30T18:41:52.868Z,31.97
2022-07-30T18:44:23.614Z,31.93
2022-07-30T18:46:54.946Z,31.90
2022-07-30T18:49:36.692Z,31.91
2022-07-30T18:52:08.592Z,31.89
2022-07-30T18:54:39.335Z,31.84
2022-07-30T18:57:14.016Z,31.79
2022-07-30T18:59:45.246Z,31.76
2022-07-30T19:02:16.298Z,31.72
2022-07-30T19:04:47.166Z,31.67
2022-07-30T19:07:18.444Z,31.60
2022-07-30T19:09:49.270Z,31.47
2022-07-30T19:12:20.128Z,31.39
2022-07-30T19:14:50.782Z,31.34
2022-07-30T19:17:21.610Z,31.32
2022-07-30T19:20:13.357Z,31.25
2022-07-30T19:22:44.153Z,31.23
2022-07-30T19:25:15.183Z,31.21
2022-07-30T19:27:46.030Z,31.17
2022-07-30T19:30:16.877Z,31.11
2022-07-30T19:32:47.893Z,31.05
2022-07-30T19:35:19.255Z,31.00
2022-07-30T19:37:50.596Z,30.94
2022-07-30T19:40:21.718Z,30.92
2022-07-30T19:42:55.625Z,30.91
2022-07-30T19:45:27.664Z,30.87
2022-07-30T19:48:29.067Z,30.84
2022-07-30T19:51:01.803Z,30.79
2022-07-30T19:53:34.091Z,30.75
2022-07-30T19:56:08.360Z,30.70
2022-07-30T19:58:57.124Z,30.64
2022-07-30T20:01:40.554Z,30.55
2022-07-30T20:04:12.469Z,30.48
2022-07-30T20:06:46.068Z,30.43
2022-07-30T20:09:17.523Z,30.38
2022-07-30T20:11:50.897Z,30.35
2022-07-30T20:14:23.147Z,30.29
2022-07-30T20:16:53.787Z,30.19
2022-07-30T20:19:25.212Z,30.13
2022-07-30T20:22:07.000Z,30.09
2022-07-30T20:24:37.861Z,30.06
2022-07-30T20:27:35.479Z,30.03
2022-07-30T20:30:06.306Z,29.99
2022-07-30T20:32:42.306Z,29.92
2022-07-30T20:35:17.399Z,29.89
2022-07-30T20:37:54.781Z,29.86
2022-07-30T20:40:27.092Z,29.83
2022-07-30T20:42:58.021Z,29.81
2022-07-30T20:45:40.194Z,29.78
2022-07-30T20:48:17.469Z,29.79
2022-07-30T20:50:56.388Z,29.79
2022-07-30T20:53:36.788Z,29.78
2022-07-30T20:56:07.962Z,29.79
2022-07-30T20:58:38.705Z,29.76
2022-07-30T21:01:15.734Z,29.71
2022-07-30T21:06:44.575Z,29.62
2022-07-30T21:09:15.372Z,29.55
2022-07-30T21:11:50.514Z,29.53
2022-07-30T21:14:21.521Z,29.51
2022-07-30T21:16:56.387Z,29.50
2022-07-30T21:19:29.046Z,29.50
2022-07-30T21:22:00.260Z,29.47
2022-07-30T21:24:31.109Z,29.44
2022-07-30T21:27:02.663Z,29.40
2022-07-30T21:29:34.852Z,29.36
2022-07-30T21:32:08.380Z,29.34
2022-07-30T21:34:42.103Z,29.29
2022-07-30T21:37:15.738Z,29.24
2022-07-30T21:39:46.921Z,29.21
2022-07-30T21:42:17.855Z,29.15
2022-07-30T21:44:58.061Z,29.10
2022-07-30T21:47:28.784Z,29.10
2022-07-30T21:49:59.422Z,29.10
2022-07-30T21:52:30.662Z,29.16
2022-07-30T21:55:04.288Z,29.16
2022-07-30T21:57:35.394Z,29.16
2022-07-30T22:00:09.141Z,29.20
2022-07-30T22:02:53.911Z,29.22
2022-07-30T22:05:38.605Z,29.16
2022-07-30T22:08:10.671Z,29.04
2022-07-30T22:10:42.040Z,28.84
2022-07-30T22:13:13.320Z,28.75
2022-07-30T22:15:44.327Z,28.62
2022-07-30T22:18:15.079Z,28.48
2022-07-30T22:20:45.830Z,28.32
2022-07-30T22:23:16.588Z,28.29
2022-07-30T22:25:48.272Z,28.21
2022-07-30T22:28:20.737Z,28.10
2022-07-30T22:30:51.541Z,28.01
2022-07-30T22:33:22.172Z,27.88
2022-07-30T22:35:52.849Z,27.72
2022-07-30T22:38:24.945Z,27.56
2022-07-30T22:40:55.734Z,27.42
2022-07-30T22:43:33.161Z,27.28
2022-07-30T22:46:16.177Z,27.12
2022-07-30T22:48:57.223Z,27.02
2022-07-30T22:52:00.859Z,27.01
2022-07-30T22:54:20.598Z,26.99
2022-07-30T22:56:53.537Z,26.95
2022-07-30T22:59:29.186Z,26.91
2022-07-30T23:02:15.769Z,26.86
2022-07-30T23:04:49.959Z,26.89
2022-07-30T23:07:20.583Z,26.93
2022-07-30T23:09:54.162Z,26.93
2022-07-30T23:12:25.004Z,26.94
2022-07-30T23:12:26.730Z,29.67
2022-07-30T23:14:55.775Z,26.97
2022-07-30T23:17:26.878Z,26.97
2022-07-30T23:19:57.573Z,26.96
2022-07-30T23:22:28.260Z,26.97
2022-07-30T23:24:58.911Z,26.98
2022-07-30T23:27:29.737Z,27.00
2022-07-30T23:30:00.418Z,27.01
2022-07-30T23:32:31.423Z,27.04
2022-07-30T23:35:02.216Z,27.06
2022-07-30T23:37:47.651Z,27.01
2022-07-30T23:40:20.015Z,26.96
2022-07-30T23:42:51.965Z,26.89
2022-07-30T23:45:22.723Z,26.80
2022-07-30T23:48:02.888Z,26.71
2022-07-30T23:50:34.203Z,26.65
2022-07-30T23:53:05.563Z,26.58
2022-07-30T23:55:38.169Z,26.55
2022-07-30T23:58:10.201Z,26.52
